sensor_id;sensor_type;location;lat;lon;timestamp;P1;durP1;ratioP1;P2;durP2;ratioP2
18378;SDS011;27025;51.986;5.984;2023-07-13T00:01:47;10.60;;;2.83;;
18378;SDS011;27025;51.986;5.984;2023-07-13T00:04:17;6.87;;;2.60;;
18378;SDS011;27025;51.986;5.984;2023-07-13T00:06:44;7.47;;;2.67;;
18378;SDS011;27025;51.986;5.984;2023-07-13T00:09:11;13.20;;;2.80;;
18378;SDS011;27025;51.986;5.984;2023-07-13T00:11:38;9.23;;;2.90;;
18378;SDS011;27025;51.986;5.984;2023-07-13T00:14:04;7.97;;;2.90;;
18378;SDS011;27025;51.986;5.984;2023-07-13T00:16:31;10.40;;;3.13;;
18378;SDS011;27025;51.986;5.984;2023-07-13T00:18:57;8.10;;;2.60;;
18378;SDS011;27025;51.986;5.984;2023-07-13T00:21:25;10.37;;;2.80;;
18378;SDS011;27025;51.986;5.984;2023-07-13T00:23:51;6.63;;;2.60;;
18378;SDS011;27025;51.986;5.984;2023-07-13T00:26:17;7.70;;;3.00;;
18378;SDS011;27025;51.986;5.984;2023-07-13T00:28:43;5.77;;;2.53;;
18378;SDS011;27025;51.986;5.984;2023-07-13T00:31:12;5.70;;;2.60;;
18378;SDS011;27025;51.986;5.984;2023-07-13T00:33:39;8.70;;;2.80;;
18378;SDS011;27025;51.986;5.984;2023-07-13T00:36:06;8.00;;;2.63;;
18378;SDS011;27025;51.986;5.984;2023-07-13T00:38:34;8.40;;;2.57;;
18378;SDS011;27025;51.986;5.984;2023-07-13T00:41:00;12.47;;;3.03;;
18378;SDS011;27025;51.986;5.984;2023-07-13T00:43:28;8.13;;;2.70;;
18378;SDS011;27025;51.986;5.984;2023-07-13T00:48:26;6.23;;;2.73;;
18378;SDS011;27025;51.986;5.984;2023-07-13T00:50:56;11.43;;;2.77;;
18378;SDS011;27025;51.986;5.984;2023-07-13T00:53:24;6.33;;;2.33;;
18378;SDS011;27025;51.986;5.984;2023-07-13T00:55:52;8.20;;;2.50;;
18378;SDS011;27025;51.986;5.984;2023-07-13T00:58:19;10.03;;;2.33;;
18378;SDS011;27025;51.986;5.984;2023-07-13T01:00:45;5.30;;;2.53;;
18378;SDS011;27025;51.986;5.984;2023-07-13T01:03:12;10.47;;;2.90;;
18378;SDS011;27025;51.986;5.984;2023-07-13T01:05:38;8.13;;;2.67;;
18378;SDS011;27025;51.986;5.984;2023-07-13T01:08:04;8.43;;;2.60;;
18378;SDS011;27025;51.986;5.984;2023-07-13T01:10:31;6.93;;;2.30;;
18378;SDS011;27025;51.986;5.984;2023-07-13T01:13:04;7.43;;;2.50;;
18378;SDS011;27025;51.986;5.984;2023-07-13T01:15:41;8.93;;;2.60;;
18378;SDS011;27025;51.986;5.984;2023-07-13T01:18:09;7.07;;;2.50;;
18378;SDS011;27025;51.986;5.984;2023-07-13T01:20:36;7.57;;;2.70;;
18378;SDS011;27025;51.986;5.984;2023-07-13T01:23:09;7.63;;;2.70;;
18378;SDS011;27025;51.986;5.984;2023-07-13T01:25:35;6.43;;;2.17;;
18378;SDS011;27025;51.986;5.984;2023-07-13T01:28:11;7.00;;;2.57;;
18378;SDS011;27025;51.986;5.984;2023-07-13T01:30:38;7.97;;;2.50;;
18378;SDS011;27025;51.986;5.984;2023-07-13T01:33:05;8.20;;;2.17;;
18378;SDS011;27025;51.986;5.984;2023-07-13T01:35:32;9.17;;;2.50;;
18378;SDS011;27025;51.986;5.984;2023-07-13T01:37:58;6.33;;;2.30;;
18378;SDS011;27025;51.986;5.984;2023-07-13T01:40:26;6.87;;;2.50;;
18378;SDS011;27025;51.986;5.984;2023-07-13T01:42:52;5.87;;;2.63;;
18378;SDS011;27025;51.986;5.984;2023-07-13T01:45:18;5.63;;;2.60;;
18378;SDS011;27025;51.986;5.984;2023-07-13T01:47:45;7.93;;;2.50;;
18378;SDS011;27025;51.986;5.984;2023-07-13T01:50:13;6.87;;;2.80;;
18378;SDS011;27025;51.986;5.984;2023-07-13T01:52:39;8.00;;;2.83;;
18378;SDS011;27025;51.986;5.984;2023-07-13T01:55:05;8.17;;;2.80;;
18378;SDS011;27025;51.986;5.984;2023-07-13T01:57:32;9.87;;;2.80;;
18378;SDS011;27025;51.986;5.984;2023-07-13T02:00:04;9.70;;;3.10;;
18378;SDS011;27025;51.986;5.984;2023-07-13T02:02:30;10.10;;;3.10;;
18378;SDS011;27025;51.986;5.984;2023-07-13T02:04:59;6.80;;;2.90;;
18378;SDS011;27025;51.986;5.984;2023-07-13T02:07:25;5.93;;;2.90;;
18378;SDS011;27025;51.986;5.984;2023-07-13T02:09:51;8.30;;;3.43;;
18378;SDS011;27025;51.986;5.984;2023-07-13T02:12:17;8.80;;;3.20;;
18378;SDS011;27025;51.986;5.984;2023-07-13T02:14:43;9.70;;;2.90;;
18378;SDS011;27025;51.986;5.984;2023-07-13T02:17:09;9.93;;;3.23;;
18378;SDS011;27025;51.986;5.984;2023-07-13T02:19:35;6.67;;;3.07;;
18378;SDS011;27025;51.986;5.984;2023-07-13T02:22:02;10.40;;;3.10;;
18378;SDS011;27025;51.986;5.984;2023-07-13T02:24:28;8.60;;;3.63;;
18378;SDS011;27025;51.986;5.984;2023-07-13T02:26:57;7.53;;;3.23;;
18378;SDS011;27025;51.986;5.984;2023-07-13T02:29:26;11.73;;;3.67;;
18378;SDS011;27025;51.986;5.984;2023-07-13T02:31:52;12.30;;;3.83;;
18378;SDS011;27025;51.986;5.984;2023-07-13T02:34:18;9.30;;;3.87;;
18378;SDS011;27025;51.986;5.984;2023-07-13T02:36:44;9.90;;;3.53;;
18378;SDS011;27025;51.986;5.984;2023-07-13T02:39:13;11.50;;;3.60;;
18378;SDS011;27025;51.986;5.984;2023-07-13T02:41:39;8.67;;;3.53;;
18378;SDS011;27025;51.986;5.984;2023-07-13T02:44:05;8.77;;;3.90;;
18378;SDS011;27025;51.986;5.984;2023-07-13T02:46:34;10.77;;;3.87;;
18378;SDS011;27025;51.986;5.984;2023-07-13T02:49:00;12.80;;;3.87;;
18378;SDS011;27025;51.986;5.984;2023-07-13T02:51:26;9.43;;;4.37;;
18378;SDS011;27025;51.986;5.984;2023-07-13T02:53:52;13.10;;;3.97;;
18378;SDS011;27025;51.986;5.984;2023-07-13T02:56:21;10.23;;;4.20;;
18378;SDS011;27025;51.986;5.984;2023-07-13T02:58:47;8.43;;;3.90;;
18378;SDS011;27025;51.986;5.984;2023-07-13T03:01:13;14.10;;;4.57;;
18378;SDS011;27025;51.986;5.984;2023-07-13T03:03:43;15.83;;;5.17;;
18378;SDS011;27025;51.986;5.984;2023-07-13T03:06:10;9.57;;;4.20;;
18378;SDS011;27025;51.986;5.984;2023-07-13T03:08:36;10.77;;;4.30;;
18378;SDS011;27025;51.986;5.984;2023-07-13T03:11:04;15.13;;;4.40;;
18378;SDS011;27025;51.986;5.984;2023-07-13T03:13:30;10.83;;;4.50;;
18378;SDS011;27025;51.986;5.984;2023-07-13T03:15:56;13.20;;;4.73;;
18378;SDS011;27025;51.986;5.984;2023-07-13T03:18:25;9.50;;;4.77;;
18378;SDS011;27025;51.986;5.984;2023-07-13T03:20:51;12.73;;;4.80;;
18378;SDS011;27025;51.986;5.984;2023-07-13T03:23:17;12.33;;;5.13;;
18378;SDS011;27025;51.986;5.984;2023-07-13T03:25:43;12.57;;;4.70;;
18378;SDS011;27025;51.986;5.984;2023-07-13T03:28:13;13.83;;;4.93;;
18378;SDS011;27025;51.986;5.984;2023-07-13T03:30:39;13.17;;;4.93;;
18378;SDS011;27025;51.986;5.984;2023-07-13T03:33:05;14.87;;;4.83;;
18378;SDS011;27025;51.986;5.984;2023-07-13T03:35:34;10.50;;;4.50;;
18378;SDS011;27025;51.986;5.984;2023-07-13T03:38:00;18.23;;;5.20;;
18378;SDS011;27025;51.986;5.984;2023-07-13T03:40:27;11.63;;;4.77;;
18378;SDS011;27025;51.986;5.984;2023-07-13T03:42:53;15.40;;;4.83;;
18378;SDS011;27025;51.986;5.984;2023-07-13T03:45:20;12.77;;;4.80;;
18378;SDS011;27025;51.986;5.984;2023-07-13T03:47:46;11.83;;;4.53;;
18378;SDS011;27025;51.986;5.984;2023-07-13T03:50:12;15.07;;;5.33;;
18378;SDS011;27025;51.986;5.984;2023-07-13T03:52:40;13.70;;;4.80;;
18378;SDS011;27025;51.986;5.984;2023-07-13T03:55:06;13.20;;;5.57;;
18378;SDS011;27025;51.986;5.984;2023-07-13T03:57:32;13.63;;;4.93;;
18378;SDS011;27025;51.986;5.984;2023-07-13T03:59:59;13.83;;;5.50;;
18378;SDS011;27025;51.986;5.984;2023-07-13T04:02:25;17.53;;;5.70;;
18378;SDS011;27025;51.986;5.984;2023-07-13T04:04:51;10.67;;;5.57;;
18378;SDS011;27025;51.986;5.984;2023-07-13T04:07:19;17.37;;;5.70;;
18378;SDS011;27025;51.986;5.984;2023-07-13T04:09:45;12.17;;;5.73;;
18378;SDS011;27025;51.986;5.984;2023-07-13T04:12:11;12.83;;;5.47;;
18378;SDS011;27025;51.986;5.984;2023-07-13T04:14:37;17.07;;;5.87;;
18378;SDS011;27025;51.986;5.984;2023-07-13T04:17:04;11.20;;;5.20;;
18378;SDS011;27025;51.986;5.984;2023-07-13T04:19:30;13.67;;;5.43;;
18378;SDS011;27025;51.986;5.984;2023-07-13T04:21:56;20.63;;;6.40;;
18378;SDS011;27025;51.986;5.984;2023-07-13T04:24:22;13.13;;;5.47;;
18378;SDS011;27025;51.986;5.984;2023-07-13T04:26:48;14.53;;;6.13;;
18378;SDS011;27025;51.986;5.984;2023-07-13T04:29:15;14.17;;;6.13;;
18378;SDS011;27025;51.986;5.984;2023-07-13T04:31:41;13.80;;;6.67;;
18378;SDS011;27025;51.986;5.984;2023-07-13T04:34:07;19.13;;;7.03;;
18378;SDS011;27025;51.986;5.984;2023-07-13T04:36:33;12.93;;;6.40;;
18378;SDS011;27025;51.986;5.984;2023-07-13T04:39:02;20.70;;;7.30;;
18378;SDS011;27025;51.986;5.984;2023-07-13T04:41:28;16.43;;;7.17;;
18378;SDS011;27025;51.986;5.984;2023-07-13T04:43:54;20.90;;;7.70;;
18378;SDS011;27025;51.986;5.984;2023-07-13T04:46:23;18.97;;;7.17;;
18378;SDS011;27025;51.986;5.984;2023-07-13T04:48:49;17.87;;;6.20;;
18378;SDS011;27025;51.986;5.984;2023-07-13T04:51:18;13.30;;;6.27;;
18378;SDS011;27025;51.986;5.984;2023-07-13T04:53:44;15.00;;;7.23;;
18378;SDS011;27025;51.986;5.984;2023-07-13T04:56:10;15.97;;;6.90;;
18378;SDS011;27025;51.986;5.984;2023-07-13T04:58:36;17.60;;;6.20;;
18378;SDS011;27025;51.986;5.984;2023-07-13T05:01:03;16.77;;;6.93;;
18378;SDS011;27025;51.986;5.984;2023-07-13T05:03:32;17.23;;;7.20;;
18378;SDS011;27025;51.986;5.984;2023-07-13T05:05:59;18.60;;;7.17;;
18378;SDS011;27025;51.986;5.984;2023-07-13T05:08:25;18.37;;;7.43;;
18378;SDS011;27025;51.986;5.984;2023-07-13T05:10:52;13.37;;;6.60;;
18378;SDS011;27025;51.986;5.984;2023-07-13T05:13:18;17.67;;;7.47;;
18378;SDS011;27025;51.986;5.984;2023-07-13T05:15:45;18.80;;;7.83;;
18378;SDS011;27025;51.986;5.984;2023-07-13T05:18:11;18.40;;;7.10;;
18378;SDS011;27025;51.986;5.984;2023-07-13T05:20:37;16.60;;;7.53;;
18378;SDS011;27025;51.986;5.984;2023-07-13T05:23:03;20.87;;;8.30;;
18378;SDS011;27025;51.986;5.984;2023-07-13T05:25:29;21.13;;;7.33;;
18378;SDS011;27025;51.986;5.984;2023-07-13T05:27:55;17.37;;;8.23;;
18378;SDS011;27025;51.986;5.984;2023-07-13T05:30:24;17.00;;;7.73;;
18378;SDS011;27025;51.986;5.984;2023-07-13T05:32:50;24.07;;;7.93;;
18378;SDS011;27025;51.986;5.984;2023-07-13T05:35:16;24.50;;;8.33;;
18378;SDS011;27025;51.986;5.984;2023-07-13T05:37:44;20.27;;;8.40;;
18378;SDS011;27025;51.986;5.984;2023-07-13T05:40:11;21.17;;;7.77;;
18378;SDS011;27025;51.986;5.984;2023-07-13T05:42:37;17.30;;;8.40;;
18378;SDS011;27025;51.986;5.984;2023-07-13T05:45:03;23.67;;;9.70;;
18378;SDS011;27025;51.986;5.984;2023-07-13T05:47:29;23.60;;;9.43;;
18378;SDS011;27025;51.986;5.984;2023-07-13T05:49:55;23.03;;;10.33;;
18378;SDS011;27025;51.986;5.984;2023-07-13T05:52:21;27.37;;;10.80;;
18378;SDS011;27025;51.986;5.984;2023-07-13T05:54:47;23.93;;;11.30;;
18378;SDS011;27025;51.986;5.984;2023-07-13T05:57:13;27.90;;;11.63;;
18378;SDS011;27025;51.986;5.984;2023-07-13T05:59:39;29.50;;;12.47;;
18378;SDS011;27025;51.986;5.984;2023-07-13T06:02:07;25.13;;;11.73;;
18378;SDS011;27025;51.986;5.984;2023-07-13T06:04:34;25.30;;;12.17;;
18378;SDS011;27025;51.986;5.984;2023-07-13T06:07:00;29.53;;;13.07;;
18378;SDS011;27025;51.986;5.984;2023-07-13T06:09:26;25.87;;;12.67;;
18378;SDS011;27025;51.986;5.984;2023-07-13T06:11:52;27.07;;;12.80;;
18378;SDS011;27025;51.986;5.984;2023-07-13T06:14:18;21.10;;;11.13;;
18378;SDS011;27025;51.986;5.984;2023-07-13T06:16:44;23.30;;;11.17;;
18378;SDS011;27025;51.986;5.984;2023-07-13T06:19:10;21.10;;;11.03;;
18378;SDS011;27025;51.986;5.984;2023-07-13T06:21:36;26.70;;;12.57;;
18378;SDS011;27025;51.986;5.984;2023-07-13T06:24:02;22.23;;;11.90;;
18378;SDS011;27025;51.986;5.984;2023-07-13T06:26:28;24.63;;;12.23;;
18378;SDS011;27025;51.986;5.984;2023-07-13T06:28:55;30.37;;;11.97;;
18378;SDS011;27025;51.986;5.984;2023-07-13T06:31:21;23.20;;;13.37;;
18378;SDS011;27025;51.986;5.984;2023-07-13T06:33:47;21.27;;;12.03;;
18378;SDS011;27025;51.986;5.984;2023-07-13T06:36:13;23.93;;;12.60;;
18378;SDS011;27025;51.986;5.984;2023-07-13T06:38:39;21.97;;;13.33;;
18378;SDS011;27025;51.986;5.984;2023-07-13T06:41:06;23.50;;;13.83;;
18378;SDS011;27025;51.986;5.984;2023-07-13T06:43:32;25.40;;;14.10;;
18378;SDS011;27025;51.986;5.984;2023-07-13T06:45:58;24.60;;;14.07;;
18378;SDS011;27025;51.986;5.984;2023-07-13T06:48:24;27.40;;;14.10;;
18378;SDS011;27025;51.986;5.984;2023-07-13T06:50:50;27.80;;;13.50;;
18378;SDS011;27025;51.986;5.984;2023-07-13T06:53:18;27.33;;;13.50;;
18378;SDS011;27025;51.986;5.984;2023-07-13T06:55:44;25.93;;;13.33;;
18378;SDS011;27025;51.986;5.984;2023-07-13T06:58:11;23.87;;;13.40;;
18378;SDS011;27025;51.986;5.984;2023-07-13T07:00:37;21.07;;;12.63;;
18378;SDS011;27025;51.986;5.984;2023-07-13T07:03:05;26.37;;;13.80;;
18378;SDS011;27025;51.986;5.984;2023-07-13T07:05:31;20.37;;;12.70;;
18378;SDS011;27025;51.986;5.984;2023-07-13T07:07:57;25.50;;;13.07;;
18378;SDS011;27025;51.986;5.984;2023-07-13T07:10:23;21.83;;;13.53;;
18378;SDS011;27025;51.986;5.984;2023-07-13T07:12:49;22.53;;;14.37;;
18378;SDS011;27025;51.986;5.984;2023-07-13T07:15:17;22.47;;;12.43;;
18378;SDS011;27025;51.986;5.984;2023-07-13T07:17:44;24.70;;;13.33;;
18378;SDS011;27025;51.986;5.984;2023-07-13T07:20:10;27.93;;;14.73;;
18378;SDS011;27025;51.986;5.984;2023-07-13T07:22:36;27.67;;;13.37;;
18378;SDS011;27025;51.986;5.984;2023-07-13T07:25:05;22.43;;;13.37;;
18378;SDS011;27025;51.986;5.984;2023-07-13T07:27:31;26.30;;;14.40;;
18378;SDS011;27025;51.986;5.984;2023-07-13T07:29:57;25.43;;;13.83;;
18378;SDS011;27025;51.986;5.984;2023-07-13T07:32:24;27.90;;;13.73;;
18378;SDS011;27025;51.986;5.984;2023-07-13T07:34:50;22.07;;;13.30;;
18378;SDS011;27025;51.986;5.984;2023-07-13T07:37:16;22.40;;;13.40;;
18378;SDS011;27025;51.986;5.984;2023-07-13T07:39:42;27.97;;;14.27;;
18378;SDS011;27025;51.986;5.984;2023-07-13T07:42:09;22.60;;;13.40;;
18378;SDS011;27025;51.986;5.984;2023-07-13T07:44:37;24.83;;;12.90;;
18378;SDS011;27025;51.986;5.984;2023-07-13T07:47:03;18.03;;;13.17;;
18378;SDS011;27025;51.986;5.984;2023-07-13T07:49:29;21.60;;;13.13;;
18378;SDS011;27025;51.986;5.984;2023-07-13T07:51:55;22.97;;;12.80;;
18378;SDS011;27025;51.986;5.984;2023-07-13T07:54:21;23.97;;;12.53;;
18378;SDS011;27025;51.986;5.984;2023-07-13T07:56:47;27.23;;;12.97;;
18378;SDS011;27025;51.986;5.984;2023-07-13T07:59:13;21.70;;;13.83;;
18378;SDS011;27025;51.986;5.984;2023-07-13T08:01:40;20.67;;;12.80;;
18378;SDS011;27025;51.986;5.984;2023-07-13T08:04:06;21.13;;;12.43;;
18378;SDS011;27025;51.986;5.984;2023-07-13T08:06:32;24.00;;;13.17;;
18378;SDS011;27025;51.986;5.984;2023-07-13T08:08:58;19.50;;;12.10;;
18378;SDS011;27025;51.986;5.984;2023-07-13T08:11:25;23.33;;;13.13;;
18378;SDS011;27025;51.986;5.984;2023-07-13T08:13:51;25.07;;;13.60;;
18378;SDS011;27025;51.986;5.984;2023-07-13T08:16:17;21.70;;;12.40;;
18378;SDS011;27025;51.986;5.984;2023-07-13T08:18:43;24.50;;;13.17;;
18378;SDS011;27025;51.986;5.984;2023-07-13T08:21:09;22.43;;;13.27;;
18378;SDS011;27025;51.986;5.984;2023-07-13T08:23:35;25.50;;;13.40;;
18378;SDS011;27025;51.986;5.984;2023-07-13T08:26:01;21.90;;;12.67;;
18378;SDS011;27025;51.986;5.984;2023-07-13T08:28:29;19.13;;;12.60;;
18378;SDS011;27025;51.986;5.984;2023-07-13T08:30:59;22.33;;;12.40;;
18378;SDS011;27025;51.986;5.984;2023-07-13T08:33:25;23.83;;;12.80;;
18378;SDS011;27025;51.986;5.984;2023-07-13T08:35:51;18.47;;;11.90;;
18378;SDS011;27025;51.986;5.984;2023-07-13T08:38:18;18.83;;;11.87;;
18378;SDS011;27025;51.986;5.984;2023-07-13T08:40:45;15.50;;;11.63;;
18378;SDS011;27025;51.986;5.984;2023-07-13T08:43:18;15.10;;;11.13;;
18378;SDS011;27025;51.986;5.984;2023-07-13T08:45:46;23.37;;;12.00;;
18378;SDS011;27025;51.986;5.984;2023-07-13T08:48:22;20.10;;;10.93;;
18378;SDS011;27025;51.986;5.984;2023-07-13T08:51:02;20.50;;;11.00;;
18378;SDS011;27025;51.986;5.984;2023-07-13T08:53:34;15.23;;;9.90;;
18378;SDS011;27025;51.986;5.984;2023-07-13T08:56:00;19.50;;;10.20;;
18378;SDS011;27025;51.986;5.984;2023-07-13T08:58:27;17.93;;;10.90;;
18378;SDS011;27025;51.986;5.984;2023-07-13T09:03:24;18.93;;;11.00;;
18378;SDS011;27025;51.986;5.984;2023-07-13T09:05:56;19.13;;;10.87;;
18378;SDS011;27025;51.986;5.984;2023-07-13T09:16:24;12.27;;;8.70;;
18378;SDS011;27025;51.986;5.984;2023-07-13T09:18:51;11.50;;;7.37;;
18378;SDS011;27025;51.986;5.984;2023-07-13T09:21:20;11.80;;;7.43;;
18378;SDS011;27025;51.986;5.984;2023-07-13T09:23:47;13.60;;;7.90;;
18378;SDS011;27025;51.986;5.984;2023-07-13T09:26:16;12.10;;;9.10;;
18378;SDS011;27025;51.986;5.984;2023-07-13T09:28:45;13.80;;;8.60;;
18378;SDS011;27025;51.986;5.984;2023-07-13T09:31:23;13.50;;;8.40;;
18378;SDS011;27025;51.986;5.984;2023-07-13T09:33:50;14.10;;;8.10;;
18378;SDS011;27025;51.986;5.984;2023-07-13T09:36:32;13.83;;;8.07;;
18378;SDS011;27025;51.986;5.984;2023-07-13T09:44:27;12.47;;;8.47;;
18378;SDS011;27025;51.986;5.984;2023-07-13T09:46:55;12.90;;;7.20;;
18378;SDS011;27025;51.986;5.984;2023-07-13T09:49:25;10.47;;;6.53;;
18378;SDS011;27025;51.986;5.984;2023-07-13T09:52:15;10.73;;;4.80;;
18378;SDS011;27025;51.986;5.984;2023-07-13T09:54:39;7.13;;;3.70;;
18378;SDS011;27025;51.986;5.984;2023-07-13T09:57:12;7.70;;;4.60;;
18378;SDS011;27025;51.986;5.984;2023-07-13T09:59:57;6.20;;;3.50;;
18378;SDS011;27025;51.986;5.984;2023-07-13T10:02:29;8.13;;;4.40;;
18378;SDS011;27025;51.986;5.984;2023-07-13T10:04:56;7.23;;;4.03;;
18378;SDS011;27025;51.986;5.984;2023-07-13T10:07:23;7.57;;;5.13;;
18378;SDS011;27025;51.986;5.984;2023-07-13T10:09:53;9.10;;;5.83;;
18378;SDS011;27025;51.986;5.984;2023-07-13T10:12:19;12.67;;;6.33;;
18378;SDS011;27025;51.986;5.984;2023-07-13T10:14:45;11.57;;;6.40;;
18378;SDS011;27025;51.986;5.984;2023-07-13T10:17:13;10.70;;;6.20;;
18378;SDS011;27025;51.986;5.984;2023-07-13T10:19:39;10.57;;;5.90;;
18378;SDS011;27025;51.986;5.984;2023-07-13T10:24:45;11.43;;;5.83;;
18378;SDS011;27025;51.986;5.984;2023-07-13T10:27:16;12.27;;;6.23;;
18378;SDS011;27025;51.986;5.984;2023-07-13T10:29:44;10.33;;;5.30;;
18378;SDS011;27025;51.986;5.984;2023-07-13T10:32:12;11.43;;;6.10;;
18378;SDS011;27025;51.986;5.984;2023-07-13T10:34:39;12.37;;;6.40;;
18378;SDS011;27025;51.986;5.984;2023-07-13T10:37:06;12.17;;;6.40;;
18378;SDS011;27025;51.986;5.984;2023-07-13T10:39:34;12.40;;;6.80;;
18378;SDS011;27025;51.986;5.984;2023-07-13T10:42:05;11.83;;;5.87;;
18378;SDS011;27025;51.986;5.984;2023-07-13T10:44:32;13.33;;;5.50;;
18378;SDS011;27025;51.986;5.984;2023-07-13T10:47:01;9.77;;;5.50;;
18378;SDS011;27025;51.986;5.984;2023-07-13T10:49:28;8.23;;;4.65;;
18378;SDS011;27025;51.986;5.984;2023-07-13T10:51:55;12.15;;;5.07;;
18378;SDS011;27025;51.986;5.984;2023-07-13T10:54:30;13.93;;;4.90;;
18378;SDS011;27025;51.986;5.984;2023-07-13T10:59:41;16.52;;;7.35;;
18378;SDS011;27025;51.986;5.984;2023-07-13T11:02:25;14.07;;;6.97;;
18378;SDS011;27025;51.986;5.984;2023-07-13T11:04:52;9.32;;;7.15;;
18378;SDS011;27025;51.986;5.984;2023-07-13T11:09:45;7.85;;;5.63;;
18378;SDS011;27025;51.986;5.984;2023-07-13T11:19:53;10.68;;;4.82;;
18378;SDS011;27025;51.986;5.984;2023-07-13T11:22:24;7.80;;;4.30;;
18378;SDS011;27025;51.986;5.984;2023-07-13T11:27:36;8.07;;;4.45;;
18378;SDS011;27025;51.986;5.984;2023-07-13T11:30:46;8.18;;;4.60;;
18378;SDS011;27025;51.986;5.984;2023-07-13T11:33:02;7.63;;;4.30;;
18378;SDS011;27025;51.986;5.984;2023-07-13T11:35:34;10.80;;;4.70;;
18378;SDS011;27025;51.986;5.984;2023-07-13T11:38:01;10.25;;;4.68;;
18378;SDS011;27025;51.986;5.984;2023-07-13T11:40:27;7.55;;;4.20;;
18378;SDS011;27025;51.986;5.984;2023-07-13T11:42:59;9.98;;;4.40;;
18378;SDS011;27025;51.986;5.984;2023-07-13T11:45:25;7.40;;;3.60;;
18378;SDS011;27025;51.986;5.984;2023-07-13T11:47:53;9.50;;;3.90;;
18378;SDS011;27025;51.986;5.984;2023-07-13T11:50:20;5.38;;;3.40;;
18378;SDS011;27025;51.986;5.984;2023-07-13T11:52:47;8.50;;;3.67;;
18378;SDS011;27025;51.986;5.984;2023-07-13T11:55:16;5.88;;;3.67;;
18378;SDS011;27025;51.986;5.984;2023-07-13T11:57:50;7.78;;;3.35;;
18378;SDS011;27025;51.986;5.984;2023-07-13T12:00:18;4.28;;;2.80;;
18378;SDS011;27025;51.986;5.984;2023-07-13T12:02:47;5.80;;;2.65;;
18378;SDS011;27025;51.986;5.984;2023-07-13T12:05:15;4.10;;;2.92;;
18378;SDS011;27025;51.986;5.984;2023-07-13T12:07:42;3.97;;;2.50;;
18378;SDS011;27025;51.986;5.984;2023-07-13T12:12:36;5.88;;;3.05;;
18378;SDS011;27025;51.986;5.984;2023-07-13T12:15:05;6.05;;;3.17;;
18378;SDS011;27025;51.986;5.984;2023-07-13T12:17:32;4.65;;;3.20;;
18378;SDS011;27025;51.986;5.984;2023-07-13T12:20:00;8.27;;;3.05;;
18378;SDS011;27025;51.986;5.984;2023-07-13T12:22:26;5.13;;;3.00;;
18378;SDS011;27025;51.986;5.984;2023-07-13T12:24:53;6.00;;;3.08;;
18378;SDS011;27025;51.986;5.984;2023-07-13T12:27:21;6.25;;;2.85;;
18378;SDS011;27025;51.986;5.984;2023-07-13T12:29:57;5.07;;;3.22;;
18378;SDS011;27025;51.986;5.984;2023-07-13T12:32:25;6.28;;;3.13;;
18378;SDS011;27025;51.986;5.984;2023-07-13T12:34:55;6.05;;;3.20;;
18378;SDS011;27025;51.986;5.984;2023-07-13T12:37:21;6.30;;;3.13;;
18378;SDS011;27025;51.986;5.984;2023-07-13T12:39:47;7.88;;;3.08;;
18378;SDS011;27025;51.986;5.984;2023-07-13T12:42:24;6.20;;;3.35;;
18378;SDS011;27025;51.986;5.984;2023-07-13T12:44:53;7.15;;;4.25;;
18378;SDS011;27025;51.986;5.984;2023-07-13T12:47:20;6.57;;;3.53;;
18378;SDS011;27025;51.986;5.984;2023-07-13T12:49:49;6.40;;;3.60;;
18378;SDS011;27025;51.986;5.984;2023-07-13T12:52:17;6.53;;;3.25;;
18378;SDS011;27025;51.986;5.984;2023-07-13T12:54:52;6.13;;;3.20;;
18378;SDS011;27025;51.986;5.984;2023-07-13T12:57:21;6.28;;;2.85;;
18378;SDS011;27025;51.986;5.984;2023-07-13T12:59:47;5.63;;;3.08;;
18378;SDS011;27025;51.986;5.984;2023-07-13T13:02:22;5.93;;;3.17;;
18378;SDS011;27025;51.986;5.984;2023-07-13T13:04:50;4.13;;;2.78;;
18378;SDS011;27025;51.986;5.984;2023-07-13T13:07:16;5.80;;;3.22;;
18378;SDS011;27025;51.986;5.984;2023-07-13T13:09:45;4.10;;;2.38;;
18378;SDS011;27025;51.986;5.984;2023-07-13T13:12:12;4.95;;;2.85;;
18378;SDS011;27025;51.986;5.984;2023-07-13T13:14:38;5.55;;;2.67;;
18378;SDS011;27025;51.986;5.984;2023-07-13T13:17:07;4.25;;;2.65;;
18378;SDS011;27025;51.986;5.984;2023-07-13T13:19:40;5.43;;;2.80;;
18378;SDS011;27025;51.986;5.984;2023-07-13T13:22:07;4.55;;;2.80;;
18378;SDS011;27025;51.986;5.984;2023-07-13T13:24:33;4.35;;;3.00;;
18378;SDS011;27025;51.986;5.984;2023-07-13T13:27:00;5.85;;;2.90;;
18378;SDS011;27025;51.986;5.984;2023-07-13T13:29:27;9.82;;;3.35;;
18378;SDS011;27025;51.986;5.984;2023-07-13T13:31:53;5.78;;;2.70;;
18378;SDS011;27025;51.986;5.984;2023-07-13T13:34:20;4.63;;;3.00;;
18378;SDS011;27025;51.986;5.984;2023-07-13T13:36:50;7.63;;;3.20;;
18378;SDS011;27025;51.986;5.984;2023-07-13T13:39:24;5.05;;;2.95;;
18378;SDS011;27025;51.986;5.984;2023-07-13T13:41:51;6.82;;;2.90;;
18378;SDS011;27025;51.986;5.984;2023-07-13T13:44:17;6.38;;;3.20;;
18378;SDS011;27025;51.986;5.984;2023-07-13T13:46:53;6.85;;;3.47;;
18378;SDS011;27025;51.986;5.984;2023-07-13T13:49:24;7.88;;;3.45;;
18378;SDS011;27025;51.986;5.984;2023-07-13T13:51:51;7.03;;;3.25;;
18378;SDS011;27025;51.986;5.984;2023-07-13T13:54:20;6.15;;;3.20;;
18378;SDS011;27025;51.986;5.984;2023-07-13T13:56:47;6.20;;;3.10;;
18378;SDS011;27025;51.986;5.984;2023-07-13T13:59:16;6.47;;;2.80;;
18378;SDS011;27025;51.986;5.984;2023-07-13T14:01:42;7.20;;;3.20;;
18378;SDS011;27025;51.986;5.984;2023-07-13T14:04:20;5.30;;;3.50;;
18378;SDS011;27025;51.986;5.984;2023-07-13T14:06:49;5.10;;;3.03;;
18378;SDS011;27025;51.986;5.984;2023-07-13T14:09:16;7.15;;;2.88;;
18378;SDS011;27025;51.986;5.984;2023-07-13T14:11:43;5.57;;;2.50;;
18378;SDS011;27025;51.986;5.984;2023-07-13T14:14:14;4.50;;;2.40;;
18378;SDS011;27025;51.986;5.984;2023-07-13T14:16:41;10.70;;;2.50;;
18378;SDS011;27025;51.986;5.984;2023-07-13T14:19:08;4.40;;;2.53;;
18378;SDS011;27025;51.986;5.984;2023-07-13T14:21:36;4.43;;;2.45;;
18378;SDS011;27025;51.986;5.984;2023-07-13T14:24:02;4.10;;;2.38;;
18378;SDS011;27025;51.986;5.984;2023-07-13T14:26:28;6.95;;;2.60;;
18378;SDS011;27025;51.986;5.984;2023-07-13T14:28:57;3.22;;;2.50;;
18378;SDS011;27025;51.986;5.984;2023-07-13T14:31:24;4.57;;;2.55;;
18378;SDS011;27025;51.986;5.984;2023-07-13T14:33:50;4.30;;;2.55;;
18378;SDS011;27025;51.986;5.984;2023-07-13T14:36:26;3.47;;;2.47;;
18378;SDS011;27025;51.986;5.984;2023-07-13T14:38:54;5.80;;;2.83;;
18378;SDS011;27025;51.986;5.984;2023-07-13T14:41:20;3.88;;;2.15;;
18378;SDS011;27025;51.986;5.984;2023-07-13T14:43:46;5.07;;;2.60;;
18378;SDS011;27025;51.986;5.984;2023-07-13T14:48:50;4.55;;;2.75;;
18378;SDS011;27025;51.986;5.984;2023-07-13T14:51:16;4.63;;;2.53;;
18378;SDS011;27025;51.986;5.984;2023-07-13T14:53:42;4.85;;;2.88;;
18378;SDS011;27025;51.986;5.984;2023-07-13T14:56:12;3.13;;;2.67;;
18378;SDS011;27025;51.986;5.984;2023-07-13T14:58:39;3.72;;;2.60;;
18378;SDS011;27025;51.986;5.984;2023-07-13T15:01:09;5.03;;;2.22;;
18378;SDS011;27025;51.986;5.984;2023-07-13T15:03:38;3.75;;;2.42;;
18378;SDS011;27025;51.986;5.984;2023-07-13T15:06:09;4.22;;;2.50;;
18378;SDS011;27025;51.986;5.984;2023-07-13T15:08:35;5.45;;;2.58;;
18378;SDS011;27025;51.986;5.984;2023-07-13T15:11:01;3.67;;;2.50;;
18378;SDS011;27025;51.986;5.984;2023-07-13T15:13:29;4.10;;;2.30;;
18378;SDS011;27025;51.986;5.984;2023-07-13T15:15:56;3.53;;;2.45;;
18378;SDS011;27025;51.986;5.984;2023-07-13T15:18:22;3.63;;;2.50;;
18378;SDS011;27025;51.986;5.984;2023-07-13T15:20:49;4.75;;;2.75;;
18378;SDS011;27025;51.986;5.984;2023-07-13T15:23:21;5.05;;;2.58;;